Webcam Richtung Westen

Webcam27

Webcam Richtung Norden

Webcam36

Webcam Richtung Osten

Webcam09

Wetter(Würzburg):
191500Z AUTO 23005G07KT 17KM BKN023 01/M04 Q1018
		
Mon 19.02.2018, 15:00 UTC

Sichtweite bis zu 17 km
Wind aus 230° mit 05kt, in Böen bis zu 07kt
unterbrochene Wolkendecke (5-7 Achtel) bei 2300 Fuß
Temperatur: 1 °C
Taupunkt: -4 °C
QNH: 1018 hPa
                         Heute        Morgen
                         19.02        20.02
--------------------------------------------
Beginn der Dämmerung     05:51        05:49
Sonnenaufgang            06:24        06:22
Sonnenuntergang          16:44        16:46
Ende der Dämmerung       17:17        17:19

Alle Zeiten in UTC